createdAt,value
2023-04-21T00:04:18.055Z,13.85
2023-04-21T00:09:23.678Z,14.15
2023-04-21T00:14:25.553Z,18.50
2023-04-21T00:19:29.118Z,19.15
2023-04-21T00:24:30.978Z,16.27
2023-04-21T00:29:32.844Z,16.15
2023-04-21T00:34:34.999Z,14.07
2023-04-21T00:39:36.792Z,15.57
2023-04-21T00:44:40.760Z,15.95
2023-04-21T00:49:42.687Z,14.55
2023-04-21T00:54:45.144Z,13.55
2023-04-21T00:59:47.396Z,15.95
2023-04-21T01:04:49.538Z,15.77
2023-04-21T01:09:51.471Z,12.63
2023-04-21T01:14:54.642Z,13.35
2023-04-21T01:19:58.351Z,17.45
2023-04-21T01:25:01.584Z,16.08
2023-04-21T01:30:07.539Z,12.88
2023-04-21T01:35:10.559Z,18.42
2023-04-21T01:40:13.920Z,11.63
2023-04-21T01:45:17.018Z,13.80
2023-04-21T01:50:19.008Z,16.73
2023-04-21T01:55:21.083Z,11.90
2023-04-21T02:00:23.455Z,16.80
2023-04-21T02:05:25.328Z,10.45
2023-04-21T02:10:27.152Z,13.43
2023-04-21T02:15:29.162Z,12.70
2023-04-21T02:20:31.107Z,10.13
2023-04-21T02:25:33.249Z,11.85
2023-04-21T02:30:35.498Z,13.57
2023-04-21T02:35:37.290Z,14.25
2023-04-21T02:40:39.095Z,10.55
2023-04-21T02:45:40.953Z,14.23
2023-04-21T02:50:43.489Z,10.98
2023-04-21T02:55:45.736Z,11.10
2023-04-21T03:00:47.637Z,15.82
2023-04-21T03:05:49.367Z,11.27
2023-04-21T03:10:53.782Z,11.60
2023-04-21T03:15:57.727Z,12.35
2023-04-21T03:21:00.980Z,13.50
2023-04-21T03:26:07.689Z,13.98
2023-04-21T03:31:10.912Z,17.08
2023-04-21T03:36:17.845Z,12.35
2023-04-21T03:41:20.838Z,10.98
2023-04-21T03:46:23.524Z,11.52
2023-04-21T03:51:25.374Z,10.13
2023-04-21T03:56:27.170Z,17.38
2023-04-21T04:01:29.041Z,10.38
2023-04-21T04:06:30.744Z,9.10
2023-04-21T04:11:32.671Z,9.65
2023-04-21T04:16:36.053Z,11.90
2023-04-21T04:21:38.803Z,13.05
2023-04-21T04:26:40.654Z,11.77
2023-04-21T04:31:42.634Z,8.20
2023-04-21T04:36:45.645Z,10.82
2023-04-21T04:41:47.460Z,15.70
2023-04-21T04:46:49.757Z,8.05
2023-04-21T04:51:51.836Z,10.20
2023-04-21T04:56:53.882Z,9.90
2023-04-21T05:01:55.826Z,14.68
2023-04-21T05:06:57.749Z,9.20
2023-04-21T05:11:59.695Z,12.43
2023-04-21T05:17:08.307Z,13.45
2023-04-21T05:22:10.118Z,11.35
2023-04-21T05:27:12.009Z,16.63
2023-04-21T05:32:14.450Z,11.23
2023-04-21T05:37:16.565Z,8.82
2023-04-21T05:42:18.454Z,12.38
2023-04-21T05:47:20.318Z,13.02
2023-04-21T05:52:22.164Z,13.07
2023-04-21T05:57:27.262Z,14.52
2023-04-21T06:02:29.231Z,11.40
2023-04-21T06:07:31.429Z,9.40
2023-04-21T06:12:36.220Z,15.13
2023-04-21T06:17:38.111Z,14.18
2023-04-21T06:22:40.242Z,8.90
2023-04-21T06:27:42.033Z,14.70
2023-04-21T06:32:46.341Z,10.77
2023-04-21T06:37:48.112Z,10.18
2023-04-21T06:42:49.995Z,14.32
2023-04-21T06:47:53.105Z,16.35
2023-04-21T06:52:55.017Z,10.13
2023-04-21T06:57:57.020Z,6.15
2023-04-21T07:02:58.975Z,6.15
2023-04-21T07:08:00.945Z,9.63
2023-04-21T07:13:02.930Z,7.18
2023-04-21T07:18:04.925Z,8.27
2023-04-21T07:23:07.987Z,7.25
2023-04-21T07:28:11.444Z,8.75
2023-04-21T07:33:14.244Z,6.85
2023-04-21T07:38:16.446Z,7.32
2023-04-21T07:43:19.976Z,8.65
2023-04-21T07:48:21.958Z,9.25
2023-04-21T07:53:24.291Z,6.75
2023-04-21T07:58:26.338Z,5.85
2023-04-21T08:03:29.668Z,9.80
2023-04-21T08:08:32.159Z,9.30
2023-04-21T08:13:34.326Z,7.85
2023-04-21T08:18:36.761Z,3.25
2023-04-21T08:23:38.827Z,4.85
2023-04-21T08:28:40.810Z,7.95
2023-04-21T08:33:53.923Z,4.70
2023-04-21T08:39:02.876Z,5.15
2023-04-21T08:44:06.182Z,10.38
2023-04-21T08:49:10.932Z,5.22
2023-04-21T08:54:13.491Z,8.98
2023-04-21T08:59:15.724Z,10.43
2023-04-21T09:04:19.188Z,10.00
2023-04-21T09:09:21.643Z,13.15
2023-04-21T09:14:31.946Z,6.40
2023-04-21T09:19:34.958Z,5.10
2023-04-21T09:24:36.955Z,8.15
2023-04-21T09:29:39.444Z,3.97
2023-04-21T09:34:43.642Z,6.60
2023-04-21T09:40:03.351Z,20.17
2023-04-21T09:45:29.122Z,9.95
2023-04-21T09:51:11.338Z,12.07
2023-04-21T09:56:02.641Z,4.78
2023-04-21T10:01:04.998Z,9.23
2023-04-21T10:06:07.716Z,5.60
2023-04-21T10:11:12.430Z,13.98
2023-04-21T10:16:17.677Z,6.72
2023-04-21T10:21:22.269Z,15.18
2023-04-21T10:26:28.169Z,4.97
2023-04-21T10:31:35.886Z,3.80
2023-04-21T10:41:51.436Z,2.20
2023-04-21T10:46:54.626Z,6.10
2023-04-21T10:52:05.522Z,7.35
2023-04-21T10:57:12.361Z,5.80
2023-04-21T11:02:16.735Z,4.80
2023-04-21T11:07:23.912Z,4.28
2023-04-21T11:12:36.897Z,15.83
2023-04-21T11:23:28.489Z,8.13
2023-04-21T11:28:44.383Z,3.22
2023-04-21T11:33:46.456Z,3.80
2023-04-21T11:38:51.451Z,6.18
2023-04-21T11:43:53.425Z,3.25
2023-04-21T11:48:59.662Z,6.60
2023-04-21T11:54:02.316Z,4.38
2023-04-21T11:59:09.462Z,4.85
2023-04-21T12:04:30.817Z,2.63
2023-04-21T12:09:36.465Z,5.55
2023-04-21T12:14:38.274Z,3.53
2023-04-21T12:19:42.962Z,6.53
2023-04-21T12:24:45.545Z,1.65
2023-04-21T12:29:47.436Z,2.80
2023-04-21T12:34:49.299Z,2.53
2023-04-21T12:39:57.543Z,5.15
2023-04-21T12:44:59.435Z,6.93
2023-04-21T12:50:01.406Z,3.03
2023-04-21T12:55:03.264Z,2.80
2023-04-21T13:00:06.028Z,6.18
2023-04-21T13:05:10.387Z,4.00
2023-04-21T13:10:12.375Z,2.15
2023-04-21T13:15:14.154Z,4.45
2023-04-21T13:20:20.455Z,3.10
2023-04-21T13:25:22.225Z,3.88
2023-04-21T13:30:24.293Z,6.38
2023-04-21T13:35:26.542Z,2.50
2023-04-21T13:40:28.876Z,3.90
2023-04-21T13:45:31.725Z,4.55
2023-04-21T13:50:33.599Z,3.13
2023-04-21T13:55:36.040Z,3.95
2023-04-21T14:00:39.034Z,3.40
2023-04-21T14:05:41.224Z,5.13
2023-04-21T14:10:43.767Z,3.95
2023-04-21T14:15:45.673Z,2.50
2023-04-21T14:20:47.554Z,1.77
2023-04-21T14:25:49.477Z,9.85
2023-04-21T14:30:51.323Z,2.90
2023-04-21T14:35:53.240Z,2.78
2023-04-21T14:40:55.299Z,2.88
2023-04-21T14:45:57.392Z,4.20
2023-04-21T14:50:59.762Z,5.60
2023-04-21T14:56:01.793Z,3.35
2023-04-21T15:01:03.875Z,4.00
2023-04-21T15:06:06.676Z,4.85
2023-04-21T15:11:08.639Z,2.35
2023-04-21T15:16:10.749Z,4.78
2023-04-21T15:21:12.647Z,6.18
2023-04-21T15:26:14.582Z,2.75
2023-04-21T15:31:16.584Z,2.78
2023-04-21T15:36:18.786Z,3.60
2023-04-21T15:41:20.845Z,4.93
2023-04-21T15:46:23.073Z,3.40
2023-04-21T15:51:25.077Z,9.15
2023-04-21T15:56:27.013Z,3.20
2023-04-21T16:01:28.852Z,3.75
2023-04-21T16:06:31.886Z,4.05
2023-04-21T16:11:34.513Z,4.03
2023-04-21T16:16:39.478Z,3.45
2023-04-21T16:21:43.107Z,2.15
2023-04-21T16:26:45.047Z,4.22
2023-04-21T16:31:47.514Z,2.92
2023-04-21T16:36:49.681Z,3.72
2023-04-21T16:41:51.527Z,4.93
2023-04-21T16:46:53.658Z,4.18
2023-04-21T16:51:57.349Z,6.55
2023-04-21T16:56:59.165Z,7.60
2023-04-21T17:02:01.087Z,9.73
2023-04-21T17:07:03.143Z,4.95
2023-04-21T17:12:05.118Z,5.22
2023-04-21T17:17:08.220Z,6.07
2023-04-21T17:22:10.287Z,11.10
2023-04-21T17:27:12.412Z,10.60
2023-04-21T17:32:14.600Z,8.63
2023-04-21T17:37:16.939Z,10.65
2023-04-21T17:42:18.793Z,5.95
2023-04-21T17:47:20.766Z,6.50
2023-04-21T17:52:23.954Z,5.68
2023-04-21T17:57:26.291Z,6.70
2023-04-21T18:02:28.140Z,7.30
2023-04-21T18:07:31.014Z,6.03
2023-04-21T18:12:32.859Z,13.63
2023-04-21T18:17:36.052Z,7.50
2023-04-21T18:22:38.355Z,7.65
2023-04-21T18:27:40.745Z,7.60
2023-04-21T18:32:42.646Z,10.27
2023-04-21T18:37:44.808Z,10.38
2023-04-21T18:42:46.889Z,7.68
2023-04-21T18:47:48.764Z,13.90
2023-04-21T18:52:52.512Z,13.05
2023-04-21T18:57:54.625Z,10.98
2023-04-21T19:02:57.298Z,7.32
2023-04-21T19:07:59.243Z,6.07
2023-04-21T19:13:12.524Z,9.35
2023-04-21T19:18:14.436Z,10.13
2023-04-21T19:23:16.373Z,8.30
2023-04-21T19:28:18.243Z,8.10
2023-04-21T19:33:20.511Z,9.63
2023-04-21T19:38:22.412Z,11.57
2023-04-21T19:43:24.298Z,9.30
2023-04-21T19:48:26.694Z,7.60
2023-04-21T19:53:28.694Z,9.32
2023-04-21T19:58:40.324Z,7.25
2023-04-21T20:03:43.105Z,7.90
2023-04-21T20:08:45.589Z,7.60
2023-04-21T20:13:47.774Z,17.33
2023-04-21T20:18:49.579Z,9.48
2023-04-21T20:23:51.386Z,10.05
2023-04-21T20:28:53.201Z,9.98
2023-04-21T20:33:56.468Z,9.68
2023-04-21T20:38:59.993Z,7.90
2023-04-21T20:44:01.941Z,8.40
2023-04-21T20:49:03.827Z,8.00
2023-04-21T20:54:05.660Z,8.32
2023-04-21T20:59:07.402Z,12.20
2023-04-21T21:04:09.693Z,9.10
2023-04-21T21:09:12.159Z,8.43
2023-04-21T21:14:14.085Z,9.80
2023-04-21T21:19:16.005Z,9.57
2023-04-21T21:24:17.841Z,6.70
2023-04-21T21:29:19.720Z,8.32
2023-04-21T21:34:21.777Z,6.40
2023-04-21T21:39:24.111Z,6.88
2023-04-21T21:44:28.039Z,7.07
2023-04-21T21:49:29.874Z,5.60
2023-04-21T21:54:31.952Z,6.35
2023-04-21T21:59:33.934Z,5.22
2023-04-21T22:04:37.926Z,5.82
2023-04-21T22:09:40.784Z,4.93
2023-04-21T22:14:42.966Z,10.73
2023-04-21T22:19:45.647Z,4.22
2023-04-21T22:24:47.559Z,7.97
2023-04-21T22:29:49.359Z,8.52
2023-04-21T22:34:51.237Z,6.78
2023-04-21T22:39:54.426Z,3.65
2023-04-21T22:44:56.890Z,10.98
2023-04-21T22:49:58.784Z,6.82
2023-04-21T22:55:00.785Z,4.55
2023-04-21T23:00:02.653Z,8.65
2023-04-21T23:05:04.803Z,8.07
2023-04-21T23:10:07.108Z,7.22
2023-04-21T23:15:09.236Z,7.00
2023-04-21T23:20:11.760Z,10.82
2023-04-21T23:25:13.617Z,13.43
2023-04-21T23:30:15.747Z,7.25
2023-04-21T23:35:17.776Z,8.15
2023-04-21T23:40:21.872Z,8.70
2023-04-21T23:45:24.932Z,7.25
2023-04-21T23:50:26.988Z,6.20
2023-04-21T23:55:28.945Z,9.02
